National Weather Service Raw Text Product

Displaying AFOS PIL: TAFMCW Received: 2018-06-14 11:27 UTC


403 
FTUS43 KDMX 141127
TAFMCW
TAF
KMCW 141127Z 1412/1512 13009KT P6SM VCSH BKN080
      TEMPO 1412/1415 3SM TSRA BR BKN035CB
     FM141500 15016G22KT P6SM SCT050 BKN110
     FM150100 15014KT P6SM SCT120
     FM150500 16013KT P6SM SCT200 WS020/20040KT=